sensor_id;sensor_type;location;lat;lon;timestamp;P1;durP1;ratioP1;P2;durP2;ratioP2
68256;SDS011;55069;51.568;4.656;2023-09-19T00:02:16;11.32;;;2.03;;
68256;SDS011;55069;51.568;4.656;2023-09-19T00:04:44;7.60;;;1.65;;
68256;SDS011;55069;51.568;4.656;2023-09-19T00:07:10;19.70;;;2.40;;
68256;SDS011;55069;51.568;4.656;2023-09-19T00:09:35;15.73;;;1.90;;
68256;SDS011;55069;51.568;4.656;2023-09-19T00:12:06;13.68;;;1.80;;
68256;SDS011;55069;51.568;4.656;2023-09-19T00:14:34;10.98;;;2.03;;
68256;SDS011;55069;51.568;4.656;2023-09-19T00:17:03;8.50;;;1.55;;
68256;SDS011;55069;51.568;4.656;2023-09-19T00:19:33;14.50;;;2.03;;
68256;SDS011;55069;51.568;4.656;2023-09-19T00:22:00;9.07;;;1.90;;
68256;SDS011;55069;51.568;4.656;2023-09-19T00:24:26;16.48;;;2.17;;
68256;SDS011;55069;51.568;4.656;2023-09-19T00:26:53;17.17;;;2.00;;
68256;SDS011;55069;51.568;4.656;2023-09-19T00:29:19;8.67;;;2.07;;
68256;SDS011;55069;51.568;4.656;2023-09-19T00:31:44;15.70;;;1.75;;
68256;SDS011;55069;51.568;4.656;2023-09-19T00:34:10;15.57;;;1.87;;
68256;SDS011;55069;51.568;4.656;2023-09-19T00:36:36;12.98;;;1.88;;
68256;SDS011;55069;51.568;4.656;2023-09-19T00:39:06;14.60;;;2.03;;
68256;SDS011;55069;51.568;4.656;2023-09-19T00:41:33;13.75;;;1.67;;
68256;SDS011;55069;51.568;4.656;2023-09-19T00:44:01;10.07;;;1.83;;
68256;SDS011;55069;51.568;4.656;2023-09-19T00:46:27;10.30;;;1.70;;
68256;SDS011;55069;51.568;4.656;2023-09-19T00:48:53;12.53;;;1.87;;
68256;SDS011;55069;51.568;4.656;2023-09-19T00:51:19;12.23;;;2.17;;
68256;SDS011;55069;51.568;4.656;2023-09-19T00:53:47;8.30;;;1.57;;
68256;SDS011;55069;51.568;4.656;2023-09-19T00:56:13;14.18;;;2.05;;
68256;SDS011;55069;51.568;4.656;2023-09-19T00:58:40;14.63;;;2.15;;
68256;SDS011;55069;51.568;4.656;2023-09-19T01:01:05;13.03;;;1.87;;
68256;SDS011;55069;51.568;4.656;2023-09-19T01:03:34;10.38;;;1.80;;
68256;SDS011;55069;51.568;4.656;2023-09-19T01:06:01;8.70;;;1.65;;
68256;SDS011;55069;51.568;4.656;2023-09-19T01:08:27;10.37;;;2.47;;
68256;SDS011;55069;51.568;4.656;2023-09-19T01:11:04;9.68;;;2.20;;
68256;SDS011;55069;51.568;4.656;2023-09-19T01:16:29;11.52;;;1.92;;
68256;SDS011;55069;51.568;4.656;2023-09-19T01:22:21;10.17;;;3.13;;
68256;SDS011;55069;51.568;4.656;2023-09-19T01:25:07;11.68;;;2.28;;
68256;SDS011;55069;51.568;4.656;2023-09-19T01:30:58;12.23;;;1.85;;
68256;SDS011;55069;51.568;4.656;2023-09-19T01:33:26;12.15;;;1.92;;
68256;SDS011;55069;51.568;4.656;2023-09-19T01:35:52;14.27;;;1.93;;
68256;SDS011;55069;51.568;4.656;2023-09-19T01:38:22;9.10;;;1.65;;
68256;SDS011;55069;51.568;4.656;2023-09-19T01:40:51;9.82;;;1.77;;
68256;SDS011;55069;51.568;4.656;2023-09-19T01:43:32;10.15;;;2.03;;
68256;SDS011;55069;51.568;4.656;2023-09-19T01:46:12;13.75;;;2.08;;
68256;SDS011;55069;51.568;4.656;2023-09-19T01:54:30;11.03;;;1.60;;
68256;SDS011;55069;51.568;4.656;2023-09-19T01:57:04;9.70;;;1.77;;
68256;SDS011;55069;51.568;4.656;2023-09-19T01:59:45;13.30;;;2.05;;
68256;SDS011;55069;51.568;4.656;2023-09-19T02:02:16;18.15;;;2.55;;
68256;SDS011;55069;51.568;4.656;2023-09-19T02:04:42;9.77;;;1.70;;
68256;SDS011;55069;51.568;4.656;2023-09-19T02:07:08;14.77;;;1.93;;
68256;SDS011;55069;51.568;4.656;2023-09-19T02:09:34;14.73;;;2.38;;
68256;SDS011;55069;51.568;4.656;2023-09-19T02:12:01;15.20;;;2.70;;
68256;SDS011;55069;51.568;4.656;2023-09-19T02:14:28;10.73;;;1.83;;
68256;SDS011;55069;51.568;4.656;2023-09-19T02:16:54;8.93;;;1.83;;
68256;SDS011;55069;51.568;4.656;2023-09-19T02:19:21;11.90;;;2.15;;
68256;SDS011;55069;51.568;4.656;2023-09-19T02:21:46;9.63;;;2.23;;
68256;SDS011;55069;51.568;4.656;2023-09-19T02:24:14;11.25;;;2.22;;
68256;SDS011;55069;51.568;4.656;2023-09-19T02:26:40;11.75;;;2.05;;
68256;SDS011;55069;51.568;4.656;2023-09-19T02:29:06;8.93;;;1.70;;
68256;SDS011;55069;51.568;4.656;2023-09-19T02:31:31;12.05;;;1.88;;
68256;SDS011;55069;51.568;4.656;2023-09-19T02:33:57;10.40;;;1.70;;
68256;SDS011;55069;51.568;4.656;2023-09-19T02:36:22;20.03;;;1.67;;
68256;SDS011;55069;51.568;4.656;2023-09-19T02:38:48;10.45;;;2.20;;
68256;SDS011;55069;51.568;4.656;2023-09-19T02:41:14;10.60;;;1.90;;
68256;SDS011;55069;51.568;4.656;2023-09-19T02:43:40;17.75;;;2.10;;
68256;SDS011;55069;51.568;4.656;2023-09-19T02:46:05;8.73;;;2.00;;
68256;SDS011;55069;51.568;4.656;2023-09-19T02:48:32;15.82;;;2.55;;
68256;SDS011;55069;51.568;4.656;2023-09-19T02:50:59;12.57;;;1.60;;
68256;SDS011;55069;51.568;4.656;2023-09-19T02:53:25;11.97;;;1.87;;
68256;SDS011;55069;51.568;4.656;2023-09-19T02:55:51;16.00;;;2.70;;
68256;SDS011;55069;51.568;4.656;2023-09-19T02:58:17;15.60;;;1.75;;
68256;SDS011;55069;51.568;4.656;2023-09-19T03:00:43;12.85;;;1.85;;
68256;SDS011;55069;51.568;4.656;2023-09-19T03:03:12;9.05;;;1.77;;
68256;SDS011;55069;51.568;4.656;2023-09-19T03:05:38;12.43;;;2.00;;
68256;SDS011;55069;51.568;4.656;2023-09-19T03:08:04;11.13;;;1.73;;
68256;SDS011;55069;51.568;4.656;2023-09-19T03:10:30;12.70;;;2.38;;
68256;SDS011;55069;51.568;4.656;2023-09-19T03:12:57;16.47;;;2.27;;
68256;SDS011;55069;51.568;4.656;2023-09-19T03:15:25;8.20;;;1.33;;
68256;SDS011;55069;51.568;4.656;2023-09-19T03:17:52;13.52;;;1.90;;
68256;SDS011;55069;51.568;4.656;2023-09-19T03:20:20;11.82;;;1.60;;
68256;SDS011;55069;51.568;4.656;2023-09-19T03:22:47;14.82;;;2.30;;
68256;SDS011;55069;51.568;4.656;2023-09-19T03:25:14;8.77;;;1.53;;
68256;SDS011;55069;51.568;4.656;2023-09-19T03:27:43;10.50;;;1.33;;
68256;SDS011;55069;51.568;4.656;2023-09-19T03:30:09;13.20;;;2.25;;
68256;SDS011;55069;51.568;4.656;2023-09-19T03:32:45;11.17;;;1.77;;
68256;SDS011;55069;51.568;4.656;2023-09-19T03:35:12;10.23;;;2.40;;
68256;SDS011;55069;51.568;4.656;2023-09-19T03:37:40;14.98;;;1.75;;
68256;SDS011;55069;51.568;4.656;2023-09-19T03:40:08;12.10;;;1.98;;
68256;SDS011;55069;51.568;4.656;2023-09-19T03:42:37;12.10;;;1.52;;
68256;SDS011;55069;51.568;4.656;2023-09-19T03:45:04;12.43;;;1.73;;
68256;SDS011;55069;51.568;4.656;2023-09-19T03:47:32;15.43;;;2.45;;
68256;SDS011;55069;51.568;4.656;2023-09-19T03:50:00;11.20;;;1.98;;
68256;SDS011;55069;51.568;4.656;2023-09-19T03:52:26;11.13;;;2.40;;
68256;SDS011;55069;51.568;4.656;2023-09-19T03:54:51;13.27;;;2.17;;
68256;SDS011;55069;51.568;4.656;2023-09-19T03:57:17;12.67;;;2.17;;
68256;SDS011;55069;51.568;4.656;2023-09-19T03:59:45;11.70;;;1.70;;
68256;SDS011;55069;51.568;4.656;2023-09-19T04:02:12;16.02;;;2.38;;
68256;SDS011;55069;51.568;4.656;2023-09-19T04:04:48;10.88;;;1.75;;
68256;SDS011;55069;51.568;4.656;2023-09-19T04:07:15;18.97;;;2.10;;
68256;SDS011;55069;51.568;4.656;2023-09-19T04:09:41;8.45;;;1.98;;
68256;SDS011;55069;51.568;4.656;2023-09-19T04:12:07;12.77;;;2.20;;
68256;SDS011;55069;51.568;4.656;2023-09-19T04:14:34;13.73;;;1.90;;
68256;SDS011;55069;51.568;4.656;2023-09-19T04:16:59;12.55;;;1.65;;
68256;SDS011;55069;51.568;4.656;2023-09-19T04:19:26;13.68;;;2.28;;
68256;SDS011;55069;51.568;4.656;2023-09-19T04:21:51;14.57;;;2.10;;
68256;SDS011;55069;51.568;4.656;2023-09-19T04:24:17;8.53;;;1.70;;
68256;SDS011;55069;51.568;4.656;2023-09-19T04:26:44;12.30;;;2.15;;
68256;SDS011;55069;51.568;4.656;2023-09-19T04:29:10;9.60;;;2.03;;
68256;SDS011;55069;51.568;4.656;2023-09-19T04:31:38;19.92;;;2.40;;
68256;SDS011;55069;51.568;4.656;2023-09-19T04:34:06;10.93;;;1.73;;
68256;SDS011;55069;51.568;4.656;2023-09-19T04:36:33;14.80;;;1.77;;
68256;SDS011;55069;51.568;4.656;2023-09-19T04:39:00;20.65;;;1.80;;
68256;SDS011;55069;51.568;4.656;2023-09-19T04:41:27;13.57;;;1.85;;
68256;SDS011;55069;51.568;4.656;2023-09-19T04:43:52;9.97;;;1.70;;
68256;SDS011;55069;51.568;4.656;2023-09-19T04:46:18;15.05;;;2.80;;
68256;SDS011;55069;51.568;4.656;2023-09-19T04:48:43;10.68;;;1.75;;
68256;SDS011;55069;51.568;4.656;2023-09-19T04:51:09;10.90;;;2.27;;
68256;SDS011;55069;51.568;4.656;2023-09-19T04:53:36;12.65;;;2.03;;
68256;SDS011;55069;51.568;4.656;2023-09-19T04:56:01;13.17;;;1.80;;
68256;SDS011;55069;51.568;4.656;2023-09-19T04:58:29;15.75;;;2.28;;
68256;SDS011;55069;51.568;4.656;2023-09-19T05:00:55;17.50;;;2.20;;
68256;SDS011;55069;51.568;4.656;2023-09-19T05:03:22;10.30;;;1.70;;
68256;SDS011;55069;51.568;4.656;2023-09-19T05:05:48;12.87;;;2.00;;
68256;SDS011;55069;51.568;4.656;2023-09-19T05:08:14;14.30;;;2.25;;
68256;SDS011;55069;51.568;4.656;2023-09-19T05:10:40;8.88;;;1.92;;
68256;SDS011;55069;51.568;4.656;2023-09-19T05:13:06;8.70;;;1.53;;
68256;SDS011;55069;51.568;4.656;2023-09-19T05:15:33;15.05;;;2.10;;
68256;SDS011;55069;51.568;4.656;2023-09-19T05:17:58;13.60;;;1.75;;
68256;SDS011;55069;51.568;4.656;2023-09-19T05:20:24;18.03;;;2.23;;
68256;SDS011;55069;51.568;4.656;2023-09-19T05:23:01;16.10;;;2.08;;
68256;SDS011;55069;51.568;4.656;2023-09-19T05:25:28;11.77;;;1.92;;
68256;SDS011;55069;51.568;4.656;2023-09-19T05:27:56;13.00;;;1.70;;
68256;SDS011;55069;51.568;4.656;2023-09-19T05:30:23;18.17;;;2.83;;
68256;SDS011;55069;51.568;4.656;2023-09-19T05:32:49;10.65;;;2.20;;
68256;SDS011;55069;51.568;4.656;2023-09-19T05:35:14;15.95;;;2.20;;
68256;SDS011;55069;51.568;4.656;2023-09-19T05:37:41;15.47;;;2.00;;
68256;SDS011;55069;51.568;4.656;2023-09-19T05:40:06;14.23;;;1.98;;
68256;SDS011;55069;51.568;4.656;2023-09-19T05:42:35;14.03;;;2.13;;
68256;SDS011;55069;51.568;4.656;2023-09-19T05:45:01;14.32;;;2.40;;
68256;SDS011;55069;51.568;4.656;2023-09-19T05:47:26;14.47;;;2.13;;
68256;SDS011;55069;51.568;4.656;2023-09-19T05:49:52;23.63;;;2.27;;
68256;SDS011;55069;51.568;4.656;2023-09-19T05:52:18;10.68;;;2.10;;
68256;SDS011;55069;51.568;4.656;2023-09-19T05:54:45;15.30;;;2.55;;
68256;SDS011;55069;51.568;4.656;2023-09-19T05:57:10;10.93;;;1.90;;
68256;SDS011;55069;51.568;4.656;2023-09-19T05:59:37;11.80;;;1.75;;
68256;SDS011;55069;51.568;4.656;2023-09-19T06:02:05;15.35;;;2.40;;
68256;SDS011;55069;51.568;4.656;2023-09-19T06:04:31;16.25;;;2.35;;
68256;SDS011;55069;51.568;4.656;2023-09-19T06:06:57;19.43;;;2.10;;
68256;SDS011;55069;51.568;4.656;2023-09-19T06:09:23;17.13;;;2.40;;
68256;SDS011;55069;51.568;4.656;2023-09-19T06:11:49;20.37;;;2.37;;
68256;SDS011;55069;51.568;4.656;2023-09-19T06:14:14;15.83;;;2.10;;
68256;SDS011;55069;51.568;4.656;2023-09-19T06:16:43;13.07;;;1.73;;
68256;SDS011;55069;51.568;4.656;2023-09-19T06:19:08;13.43;;;2.42;;
68256;SDS011;55069;51.568;4.656;2023-09-19T06:21:35;23.43;;;2.40;;
68256;SDS011;55069;51.568;4.656;2023-09-19T06:24:01;15.63;;;2.40;;
68256;SDS011;55069;51.568;4.656;2023-09-19T06:26:28;19.50;;;2.90;;
68256;SDS011;55069;51.568;4.656;2023-09-19T06:28:54;17.95;;;2.55;;
68256;SDS011;55069;51.568;4.656;2023-09-19T06:31:21;20.05;;;2.67;;
68256;SDS011;55069;51.568;4.656;2023-09-19T06:33:48;15.70;;;2.53;;
68256;SDS011;55069;51.568;4.656;2023-09-19T06:36:13;15.77;;;1.92;;
68256;SDS011;55069;51.568;4.656;2023-09-19T06:38:40;16.58;;;2.45;;
68256;SDS011;55069;51.568;4.656;2023-09-19T06:41:06;12.97;;;2.30;;
68256;SDS011;55069;51.568;4.656;2023-09-19T06:43:34;10.45;;;2.03;;
68256;SDS011;55069;51.568;4.656;2023-09-19T06:46:03;14.38;;;2.20;;
68256;SDS011;55069;51.568;4.656;2023-09-19T06:48:29;13.83;;;1.73;;
68256;SDS011;55069;51.568;4.656;2023-09-19T06:50:55;16.00;;;2.10;;
68256;SDS011;55069;51.568;4.656;2023-09-19T06:53:23;20.67;;;2.90;;
68256;SDS011;55069;51.568;4.656;2023-09-19T06:55:50;21.35;;;2.47;;
68256;SDS011;55069;51.568;4.656;2023-09-19T06:58:16;11.40;;;2.22;;
68256;SDS011;55069;51.568;4.656;2023-09-19T07:00:42;15.85;;;2.55;;
68256;SDS011;55069;51.568;4.656;2023-09-19T07:03:08;15.68;;;2.42;;
68256;SDS011;55069;51.568;4.656;2023-09-19T07:05:36;11.65;;;2.28;;
68256;SDS011;55069;51.568;4.656;2023-09-19T07:08:04;15.02;;;2.15;;
68256;SDS011;55069;51.568;4.656;2023-09-19T07:10:34;20.00;;;2.43;;
68256;SDS011;55069;51.568;4.656;2023-09-19T07:13:01;19.52;;;2.00;;
68256;SDS011;55069;51.568;4.656;2023-09-19T07:15:28;15.03;;;2.57;;
68256;SDS011;55069;51.568;4.656;2023-09-19T07:17:56;19.92;;;3.45;;
68256;SDS011;55069;51.568;4.656;2023-09-19T07:20:22;16.40;;;2.20;;
68256;SDS011;55069;51.568;4.656;2023-09-19T07:22:50;15.55;;;2.55;;
68256;SDS011;55069;51.568;4.656;2023-09-19T07:25:16;17.93;;;2.10;;
68256;SDS011;55069;51.568;4.656;2023-09-19T07:27:42;15.40;;;2.60;;
68256;SDS011;55069;51.568;4.656;2023-09-19T07:30:08;18.23;;;3.08;;
68256;SDS011;55069;51.568;4.656;2023-09-19T07:32:34;18.77;;;2.67;;
68256;SDS011;55069;51.568;4.656;2023-09-19T07:35:03;12.82;;;2.25;;
68256;SDS011;55069;51.568;4.656;2023-09-19T07:37:31;21.25;;;2.67;;
68256;SDS011;55069;51.568;4.656;2023-09-19T07:40:07;18.30;;;2.50;;
68256;SDS011;55069;51.568;4.656;2023-09-19T07:42:36;17.25;;;3.05;;
68256;SDS011;55069;51.568;4.656;2023-09-19T07:45:04;13.13;;;2.45;;
68256;SDS011;55069;51.568;4.656;2023-09-19T07:47:30;16.35;;;2.80;;
68256;SDS011;55069;51.568;4.656;2023-09-19T07:49:58;12.88;;;1.90;;
68256;SDS011;55069;51.568;4.656;2023-09-19T07:52:24;15.47;;;2.27;;
68256;SDS011;55069;51.568;4.656;2023-09-19T07:54:50;13.93;;;2.35;;
68256;SDS011;55069;51.568;4.656;2023-09-19T07:57:16;13.10;;;2.60;;
68256;SDS011;55069;51.568;4.656;2023-09-19T07:59:41;16.23;;;1.93;;
68256;SDS011;55069;51.568;4.656;2023-09-19T08:02:10;13.05;;;2.20;;
68256;SDS011;55069;51.568;4.656;2023-09-19T08:04:43;16.17;;;2.63;;
68256;SDS011;55069;51.568;4.656;2023-09-19T08:07:11;10.73;;;2.23;;
68256;SDS011;55069;51.568;4.656;2023-09-19T08:09:38;12.27;;;2.42;;
68256;SDS011;55069;51.568;4.656;2023-09-19T08:12:04;17.45;;;2.38;;
68256;SDS011;55069;51.568;4.656;2023-09-19T08:14:33;14.07;;;2.55;;
68256;SDS011;55069;51.568;4.656;2023-09-19T08:16:58;17.70;;;2.53;;
68256;SDS011;55069;51.568;4.656;2023-09-19T08:19:25;17.95;;;2.10;;
68256;SDS011;55069;51.568;4.656;2023-09-19T08:21:56;20.35;;;2.55;;
68256;SDS011;55069;51.568;4.656;2023-09-19T08:24:28;17.52;;;2.40;;
68256;SDS011;55069;51.568;4.656;2023-09-19T08:26:57;11.73;;;1.77;;
68256;SDS011;55069;51.568;4.656;2023-09-19T08:29:23;15.83;;;2.13;;
68256;SDS011;55069;51.568;4.656;2023-09-19T08:31:53;15.23;;;2.13;;
68256;SDS011;55069;51.568;4.656;2023-09-19T08:34:22;12.05;;;2.35;;
68256;SDS011;55069;51.568;4.656;2023-09-19T08:36:52;15.00;;;2.55;;
68256;SDS011;55069;51.568;4.656;2023-09-19T08:39:22;12.70;;;2.90;;
68256;SDS011;55069;51.568;4.656;2023-09-19T08:41:48;17.07;;;2.43;;
68256;SDS011;55069;51.568;4.656;2023-09-19T08:44:13;12.18;;;2.58;;
68256;SDS011;55069;51.568;4.656;2023-09-19T08:46:40;9.63;;;2.23;;
68256;SDS011;55069;51.568;4.656;2023-09-19T08:49:32;12.57;;;2.20;;
68256;SDS011;55069;51.568;4.656;2023-09-19T08:52:10;14.75;;;2.55;;
68256;SDS011;55069;51.568;4.656;2023-09-19T08:54:45;14.98;;;2.05;;
68256;SDS011;55069;51.568;4.656;2023-09-19T08:57:13;15.53;;;3.17;;
68256;SDS011;55069;51.568;4.656;2023-09-19T08:59:47;10.15;;;1.50;;
68256;SDS011;55069;51.568;4.656;2023-09-19T09:02:14;12.98;;;2.20;;
68256;SDS011;55069;51.568;4.656;2023-09-19T09:04:41;15.50;;;2.20;;
68256;SDS011;55069;51.568;4.656;2023-09-19T09:07:10;12.73;;;2.53;;
68256;SDS011;55069;51.568;4.656;2023-09-19T09:09:39;11.57;;;2.07;;
68256;SDS011;55069;51.568;4.656;2023-09-19T09:12:13;13.75;;;1.88;;
68256;SDS011;55069;51.568;4.656;2023-09-19T09:14:40;10.20;;;2.25;;
68256;SDS011;55069;51.568;4.656;2023-09-19T09:17:10;15.63;;;2.47;;
68256;SDS011;55069;51.568;4.656;2023-09-19T09:19:37;10.20;;;1.95;;
68256;SDS011;55069;51.568;4.656;2023-09-19T09:22:06;17.60;;;2.60;;
68256;SDS011;55069;51.568;4.656;2023-09-19T09:24:33;10.90;;;2.28;;
68256;SDS011;55069;51.568;4.656;2023-09-19T09:26:59;14.65;;;2.10;;
68256;SDS011;55069;51.568;4.656;2023-09-19T09:29:41;11.05;;;2.70;;
68256;SDS011;55069;51.568;4.656;2023-09-19T09:34:54;14.30;;;2.40;;
68256;SDS011;55069;51.568;4.656;2023-09-19T09:37:20;15.13;;;2.38;;
68256;SDS011;55069;51.568;4.656;2023-09-19T09:42:36;13.10;;;1.83;;
68256;SDS011;55069;51.568;4.656;2023-09-19T09:45:14;14.00;;;2.03;;
68256;SDS011;55069;51.568;4.656;2023-09-19T09:47:45;11.85;;;1.83;;
68256;SDS011;55069;51.568;4.656;2023-09-19T09:50:26;11.75;;;2.17;;
68256;SDS011;55069;51.568;4.656;2023-09-19T09:53:28;14.40;;;2.22;;
68256;SDS011;55069;51.568;4.656;2023-09-19T09:56:04;10.02;;;1.77;;
68256;SDS011;55069;51.568;4.656;2023-09-19T09:58:31;13.13;;;2.07;;
68256;SDS011;55069;51.568;4.656;2023-09-19T10:00:58;12.65;;;2.15;;
68256;SDS011;55069;51.568;4.656;2023-09-19T10:03:30;13.38;;;1.60;;
68256;SDS011;55069;51.568;4.656;2023-09-19T10:06:13;11.07;;;2.10;;
68256;SDS011;55069;51.568;4.656;2023-09-19T10:11:47;11.00;;;1.73;;
68256;SDS011;55069;51.568;4.656;2023-09-19T10:14:19;11.60;;;1.50;;
68256;SDS011;55069;51.568;4.656;2023-09-19T10:16:49;9.05;;;1.85;;
68256;SDS011;55069;51.568;4.656;2023-09-19T10:19:40;10.30;;;1.90;;
68256;SDS011;55069;51.568;4.656;2023-09-19T10:22:12;11.18;;;1.90;;
68256;SDS011;55069;51.568;4.656;2023-09-19T10:24:39;8.70;;;1.37;;
68256;SDS011;55069;51.568;4.656;2023-09-19T10:27:06;11.32;;;1.33;;
68256;SDS011;55069;51.568;4.656;2023-09-19T10:29:36;7.93;;;1.70;;
68256;SDS011;55069;51.568;4.656;2023-09-19T10:32:05;12.38;;;1.52;;
68256;SDS011;55069;51.568;4.656;2023-09-19T10:34:33;8.23;;;1.52;;
68256;SDS011;55069;51.568;4.656;2023-09-19T10:37:01;6.57;;;1.20;;
68256;SDS011;55069;51.568;4.656;2023-09-19T10:39:31;8.32;;;1.27;;
68256;SDS011;55069;51.568;4.656;2023-09-19T10:42:01;8.77;;;1.40;;
68256;SDS011;55069;51.568;4.656;2023-09-19T10:44:31;11.18;;;1.25;;
68256;SDS011;55069;51.568;4.656;2023-09-19T10:46:58;11.27;;;1.45;;
68256;SDS011;55069;51.568;4.656;2023-09-19T10:49:24;14.40;;;1.37;;
68256;SDS011;55069;51.568;4.656;2023-09-19T10:51:54;7.47;;;1.13;;
68256;SDS011;55069;51.568;4.656;2023-09-19T10:54:24;6.63;;;1.10;;
68256;SDS011;55069;51.568;4.656;2023-09-19T10:56:53;9.32;;;1.15;;
68256;SDS011;55069;51.568;4.656;2023-09-19T10:59:20;7.10;;;1.40;;
68256;SDS011;55069;51.568;4.656;2023-09-19T11:01:47;9.93;;;1.20;;
68256;SDS011;55069;51.568;4.656;2023-09-19T11:04:22;8.35;;;1.25;;
68256;SDS011;55069;51.568;4.656;2023-09-19T11:07:01;4.97;;;1.00;;
68256;SDS011;55069;51.568;4.656;2023-09-19T11:09:48;5.40;;;1.15;;
68256;SDS011;55069;51.568;4.656;2023-09-19T11:14:51;7.00;;;1.00;;
68256;SDS011;55069;51.568;4.656;2023-09-19T11:30:31;5.25;;;1.05;;
68256;SDS011;55069;51.568;4.656;2023-09-19T11:43:54;5.95;;;1.05;;
68256;SDS011;55069;51.568;4.656;2023-09-19T11:47:00;5.88;;;1.10;;
68256;SDS011;55069;51.568;4.656;2023-09-19T11:49:29;6.40;;;1.02;;
68256;SDS011;55069;51.568;4.656;2023-09-19T11:51:57;6.97;;;1.30;;
68256;SDS011;55069;51.568;4.656;2023-09-19T11:54:29;8.13;;;1.05;;
68256;SDS011;55069;51.568;4.656;2023-09-19T11:56:57;7.28;;;0.80;;
68256;SDS011;55069;51.568;4.656;2023-09-19T11:59:24;10.25;;;0.80;;
68256;SDS011;55069;51.568;4.656;2023-09-19T12:02:04;6.40;;;0.82;;
68256;SDS011;55069;51.568;4.656;2023-09-19T12:04:40;4.20;;;0.70;;
68256;SDS011;55069;51.568;4.656;2023-09-19T12:07:12;10.15;;;0.93;;
68256;SDS011;55069;51.568;4.656;2023-09-19T12:09:41;3.47;;;0.57;;
68256;SDS011;55069;51.568;4.656;2023-09-19T12:12:23;8.07;;;1.17;;
68256;SDS011;55069;51.568;4.656;2023-09-19T12:14:55;3.63;;;0.50;;
68256;SDS011;55069;51.568;4.656;2023-09-19T12:20:04;5.35;;;1.17;;
68256;SDS011;55069;51.568;4.656;2023-09-19T12:22:44;8.15;;;1.08;;
68256;SDS011;55069;51.568;4.656;2023-09-19T12:25:11;5.47;;;0.98;;
68256;SDS011;55069;51.568;4.656;2023-09-19T12:27:44;5.20;;;0.73;;
68256;SDS011;55069;51.568;4.656;2023-09-19T12:30:18;5.07;;;0.70;;
68256;SDS011;55069;51.568;4.656;2023-09-19T12:32:46;2.47;;;0.70;;
68256;SDS011;55069;51.568;4.656;2023-09-19T12:35:27;5.72;;;0.80;;
68256;SDS011;55069;51.568;4.656;2023-09-19T12:37:55;10.07;;;0.80;;
68256;SDS011;55069;51.568;4.656;2023-09-19T12:40:22;4.10;;;0.80;;
68256;SDS011;55069;51.568;4.656;2023-09-19T12:42:52;5.03;;;0.70;;
68256;SDS011;55069;51.568;4.656;2023-09-19T12:45:20;4.50;;;0.85;;
68256;SDS011;55069;51.568;4.656;2023-09-19T12:51:02;5.22;;;0.90;;
68256;SDS011;55069;51.568;4.656;2023-09-19T12:53:44;8.10;;;0.70;;
68256;SDS011;55069;51.568;4.656;2023-09-19T12:56:14;5.47;;;0.83;;
68256;SDS011;55069;51.568;4.656;2023-09-19T12:58:51;8.35;;;0.90;;
68256;SDS011;55069;51.568;4.656;2023-09-19T13:01:20;7.05;;;1.00;;
68256;SDS011;55069;51.568;4.656;2023-09-19T13:06:37;5.55;;;0.80;;
68256;SDS011;55069;51.568;4.656;2023-09-19T13:09:12;7.97;;;1.00;;
68256;SDS011;55069;51.568;4.656;2023-09-19T13:11:39;5.38;;;0.90;;
68256;SDS011;55069;51.568;4.656;2023-09-19T13:14:15;3.72;;;1.20;;
68256;SDS011;55069;51.568;4.656;2023-09-19T13:16:58;3.17;;;0.80;;
68256;SDS011;55069;51.568;4.656;2023-09-19T13:19:51;4.95;;;0.90;;
68256;SDS011;55069;51.568;4.656;2023-09-19T13:22:41;4.23;;;1.00;;
68256;SDS011;55069;51.568;4.656;2023-09-19T13:25:19;5.05;;;1.20;;
68256;SDS011;55069;51.568;4.656;2023-09-19T13:30:13;6.45;;;1.25;;
68256;SDS011;55069;51.568;4.656;2023-09-19T13:32:39;5.57;;;1.08;;
68256;SDS011;55069;51.568;4.656;2023-09-19T13:35:06;7.45;;;1.08;;
68256;SDS011;55069;51.568;4.656;2023-09-19T13:37:34;7.18;;;1.15;;
68256;SDS011;55069;51.568;4.656;2023-09-19T13:40:07;9.98;;;1.70;;
68256;SDS011;55069;51.568;4.656;2023-09-19T13:42:33;6.90;;;1.33;;
68256;SDS011;55069;51.568;4.656;2023-09-19T13:45:01;6.28;;;1.55;;
68256;SDS011;55069;51.568;4.656;2023-09-19T13:47:29;3.58;;;1.35;;
68256;SDS011;55069;51.568;4.656;2023-09-19T13:49:55;13.05;;;1.50;;
68256;SDS011;55069;51.568;4.656;2023-09-19T13:52:21;7.03;;;1.40;;
68256;SDS011;55069;51.568;4.656;2023-09-19T13:54:49;5.55;;;1.67;;
68256;SDS011;55069;51.568;4.656;2023-09-19T13:57:15;3.72;;;1.05;;
68256;SDS011;55069;51.568;4.656;2023-09-19T13:59:42;3.80;;;1.55;;
68256;SDS011;55069;51.568;4.656;2023-09-19T14:02:07;5.63;;;1.50;;
68256;SDS011;55069;51.568;4.656;2023-09-19T14:04:33;6.68;;;1.50;;
68256;SDS011;55069;51.568;4.656;2023-09-19T14:07:01;6.00;;;1.60;;
68256;SDS011;55069;51.568;4.656;2023-09-19T14:09:28;5.90;;;1.30;;
68256;SDS011;55069;51.568;4.656;2023-09-19T14:11:54;7.82;;;1.60;;
68256;SDS011;55069;51.568;4.656;2023-09-19T14:14:20;5.60;;;1.43;;
68256;SDS011;55069;51.568;4.656;2023-09-19T14:16:46;4.10;;;1.25;;
68256;SDS011;55069;51.568;4.656;2023-09-19T14:19:12;6.60;;;1.20;;
68256;SDS011;55069;51.568;4.656;2023-09-19T14:21:40;5.40;;;1.52;;
68256;SDS011;55069;51.568;4.656;2023-09-19T14:24:05;7.30;;;1.43;;
68256;SDS011;55069;51.568;4.656;2023-09-19T14:26:41;4.20;;;1.15;;
68256;SDS011;55069;51.568;4.656;2023-09-19T14:29:06;4.33;;;1.20;;
68256;SDS011;55069;51.568;4.656;2023-09-19T14:31:37;6.55;;;1.13;;
68256;SDS011;55069;51.568;4.656;2023-09-19T14:34:05;3.92;;;1.50;;
68256;SDS011;55069;51.568;4.656;2023-09-19T14:36:31;5.40;;;1.40;;
68256;SDS011;55069;51.568;4.656;2023-09-19T14:38:57;5.60;;;1.25;;
68256;SDS011;55069;51.568;4.656;2023-09-19T14:41:23;6.10;;;1.38;;
68256;SDS011;55069;51.568;4.656;2023-09-19T14:43:51;11.90;;;1.33;;
68256;SDS011;55069;51.568;4.656;2023-09-19T14:46:17;7.15;;;1.60;;
68256;SDS011;55069;51.568;4.656;2023-09-19T14:48:44;7.35;;;1.60;;
68256;SDS011;55069;51.568;4.656;2023-09-19T14:51:12;9.00;;;1.50;;
68256;SDS011;55069;51.568;4.656;2023-09-19T14:53:38;6.43;;;1.30;;
68256;SDS011;55069;51.568;4.656;2023-09-19T14:56:06;8.50;;;1.33;;
68256;SDS011;55069;51.568;4.656;2023-09-19T14:58:36;6.95;;;1.33;;
68256;SDS011;55069;51.568;4.656;2023-09-19T15:03:31;4.97;;;1.25;;
68256;SDS011;55069;51.568;4.656;2023-09-19T15:06:01;9.35;;;1.33;;
68256;SDS011;55069;51.568;4.656;2023-09-19T15:08:30;3.50;;;1.50;;
68256;SDS011;55069;51.568;4.656;2023-09-19T15:10:56;6.70;;;1.63;;
68256;SDS011;55069;51.568;4.656;2023-09-19T15:13:23;7.70;;;1.48;;
68256;SDS011;55069;51.568;4.656;2023-09-19T15:16:09;4.43;;;1.30;;
68256;SDS011;55069;51.568;4.656;2023-09-19T15:18:36;6.75;;;1.38;;
68256;SDS011;55069;51.568;4.656;2023-09-19T15:21:06;6.80;;;1.87;;
68256;SDS011;55069;51.568;4.656;2023-09-19T15:23:34;7.40;;;1.20;;
68256;SDS011;55069;51.568;4.656;2023-09-19T15:26:02;10.13;;;1.45;;
68256;SDS011;55069;51.568;4.656;2023-09-19T15:28:28;5.20;;;1.50;;
68256;SDS011;55069;51.568;4.656;2023-09-19T15:31:04;11.18;;;1.55;;
68256;SDS011;55069;51.568;4.656;2023-09-19T15:33:31;8.23;;;1.70;;
68256;SDS011;55069;51.568;4.656;2023-09-19T15:36:07;6.53;;;1.30;;
68256;SDS011;55069;51.568;4.656;2023-09-19T15:41:36;8.32;;;1.60;;
68256;SDS011;55069;51.568;4.656;2023-09-19T15:44:04;6.18;;;1.40;;
68256;SDS011;55069;51.568;4.656;2023-09-19T15:46:35;7.63;;;2.27;;
68256;SDS011;55069;51.568;4.656;2023-09-19T15:49:01;13.23;;;3.50;;
68256;SDS011;55069;51.568;4.656;2023-09-19T15:51:27;5.78;;;2.13;;
68256;SDS011;55069;51.568;4.656;2023-09-19T15:53:53;4.37;;;1.50;;
68256;SDS011;55069;51.568;4.656;2023-09-19T15:56:21;6.45;;;1.40;;